MMCV

Details ICAO MMCV (CVM)
Name GENERAL PEDRO JOSE MENDEZ INTL
Region Mexico
Timezone America/Monterrey (UTC-6.0)
Plans Departing 7
Arriving 3
Stats Elevation 761 ft / 232 m (AMSL)
Location 23.706730° -98.961506°
Runways 2
Magnetic Variation 4.503° E
Sunrise 2017-12-18 13:13:43 UTC / 2017-12-18 07:13:43 Local
Sunset 2017-12-18 23:54:10 UTC / 2017-12-18 17:54:10 Local
Advertisement - Login to hide

Runways

ID Width Length Bearing (true) Bearing (mag) Surface Threshold Offset Overrun Length
15 148 ft / 45 m 7,248 ft / 2,209 m 156.63° 152.13° Asphalt 0 ft / 0 m 200 ft / 61 m
17 98 ft / 30 m 4,672 ft / 1,424 m 180.84° 176.34° Asphalt 0 ft / 0 m 0 ft / 0 m
33 148 ft / 45 m 7,248 ft / 2,209 m 336.64° 332.14° Asphalt 0 ft / 0 m 200 ft / 61 m
35 98 ft / 30 m 4,672 ft / 1,424 m 0.84° 356.34° Asphalt 0 ft / 0 m 0 ft / 0 m

Map

Weather


0- 5 10 15 20 25 30 35+ Temperature / ° C

Clouds and Precipitation
Forecast for 2017-12-18 12:00 UTC. Updated 2 hours ago

Ground ~20,000 ft ~40,000 ft Winds

METAR

MMCV 181240Z E00000KT 1/16SM FG VV000 15/15 A3009 RMK 8//// RTS

TAF

TAF AMD TAF AMD MMCV 181248Z 1813/1906 09005KT 1/4SM FG VV001 BECMG 1815/1816 2SM BR SCT003 BKN007 FM181800 16016KT P6SM SCT030 BKN080 BKN250 FM190500 12005KT P6SM BKN100

Frequencies

Tower 118.20 MHz VICTORIA TWR
Approach 124.50 MHz MONTERREY CNTR
Warning: Do not use this data for real-world aviation or navigation. No guarantee of current accuracy is given.